CYYE

Fort Nelson Airport

Fort Nelson, British Columbia, Canada
METAR CYYE 231100Z 30008KT 15SM SCT150 SCT230 13/04 A2980 RMK AC3CI1 SLP098 DENSITY ALT 1500FT
Observed Flight Rules
May-23 @ 11:00 UTC (13 minutes ago) Visual Flight Rules
Wind Visibility Clouds
300° at 8 knots 15 miles
  • Scattered at 15,000' AGL
  • Scattered at 23,000' AGL
Temperatures Readings
Current 13°C / 55°F
Dewpoint 4°C / 39°F
Humidity 55%
Altimeter 29.8" Hg
Pressure 1009.8 hPa
Elevation 382
METAR CYYE 231100Z 30008KT 15SM SCT150 SCT230 13/04 A2980 RMK AC3CI1 SLP098 DENSITY ALT 1500FT
Observed Flight Rules
May-23 @ 11:00 UTC
(13 minutes ago)
VFR
Wind Visibility
300° at 8 knots 15 miles
Clouds
  • Scattered at 15,000' AGL
  • Scattered at 23,000' AGL
Temperature Dewpoint
13°C / 55°F 4°C / 39°F
Humidity Altimeter Pressure
55% 29.8" Hg 1009.8 hPa